createdAt,value
2019-02-27T00:01:54.796Z,38.77
2019-02-27T00:04:23.722Z,40.40
2019-02-27T00:06:52.643Z,38.33
2019-02-27T00:09:21.682Z,41.40
2019-02-27T00:11:50.723Z,40.73
2019-02-27T00:14:19.534Z,40.13
2019-02-27T00:16:48.810Z,42.40
2019-02-27T00:19:17.974Z,44.60
2019-02-27T00:21:46.904Z,45.90
2019-02-27T00:24:16.895Z,44.90
2019-02-27T00:26:45.457Z,43.30
2019-02-27T00:29:14.262Z,43.83
2019-02-27T00:31:46.081Z,44.70
2019-02-27T00:34:14.384Z,46.07
2019-02-27T00:36:45.091Z,46.83
2019-02-27T00:39:14.275Z,45.07
2019-02-27T00:41:43.096Z,46.53
2019-02-27T00:44:13.552Z,44.97
2019-02-27T00:46:43.952Z,43.87
2019-02-27T00:49:12.957Z,43.47
2019-02-27T00:51:44.692Z,42.60
2019-02-27T00:54:12.481Z,42.97
2019-02-27T00:56:44.812Z,42.20
2019-02-27T00:59:12.008Z,41.70
2019-02-27T01:01:41.780Z,43.47
2019-02-27T01:04:11.169Z,41.90
2019-02-27T01:06:39.858Z,44.07
2019-02-27T01:09:08.894Z,42.60
2019-02-27T01:11:39.375Z,41.47
2019-02-27T01:14:08.813Z,41.43
2019-02-27T01:16:38.066Z,42.70
2019-02-27T01:19:06.862Z,40.83
2019-02-27T01:21:35.664Z,41.40
2019-02-27T01:24:04.466Z,40.63
2019-02-27T01:26:33.388Z,48.37
2019-02-27T01:29:02.911Z,47.43
2019-02-27T01:31:31.832Z,43.83
2019-02-27T01:34:11.190Z,44.53
2019-02-27T01:36:38.558Z,44.57
2019-02-27T01:39:08.983Z,43.47
2019-02-27T01:41:38.802Z,42.73
2019-02-27T01:44:07.967Z,40.70
2019-02-27T01:46:41.354Z,38.77
2019-02-27T01:49:11.209Z,42.13
2019-02-27T01:51:40.013Z,36.53
2019-02-27T01:54:08.934Z,36.80
2019-02-27T01:56:37.973Z,40.70
2019-02-27T01:59:07.018Z,39.07
2019-02-27T02:01:35.698Z,37.63
2019-02-27T02:04:04.861Z,37.80
2019-02-27T02:06:33.901Z,37.07
2019-02-27T02:09:12.072Z,36.87
2019-02-27T02:11:47.232Z,38.80
2019-02-27T02:14:46.035Z,39.13
2019-02-27T02:17:52.154Z,39.63
2019-02-27T02:20:43.279Z,40.33
2019-02-27T02:23:40.995Z,39.27
2019-02-27T02:26:35.648Z,43.27
2019-02-27T02:30:01.286Z,41.43
2019-02-27T02:33:12.205Z,41.13
2019-02-27T02:36:25.116Z,40.97
2019-02-27T02:39:24.335Z,41.77
2019-02-27T02:42:13.304Z,40.93
2019-02-27T02:45:11.886Z,42.43
2019-02-27T02:48:31.025Z,41.27
2019-02-27T02:51:42.353Z,41.97
2019-02-27T02:54:39.703Z,40.73
2019-02-27T02:57:35.952Z,41.83
2019-02-27T03:00:42.500Z,41.23
2019-02-27T03:04:02.510Z,41.30
2019-02-27T03:07:00.765Z,41.20
2019-02-27T03:10:07.563Z,40.90
2019-02-27T03:13:06.071Z,39.77
2019-02-27T03:15:55.082Z,40.20
2019-02-27T03:19:06.242Z,38.07
2019-02-27T03:21:50.059Z,39.07
2019-02-27T03:24:30.498Z,38.57
2019-02-27T03:27:30.848Z,38.73
2019-02-27T03:30:34.247Z,39.37
2019-02-27T03:34:05.911Z,37.30
2019-02-27T03:37:14.419Z,38.60
2019-02-27T03:40:27.143Z,37.33
2019-02-27T03:43:14.663Z,38.60
2019-02-27T03:46:14.672Z,36.03
2019-02-27T03:49:17.187Z,38.37
2019-02-27T03:52:36.126Z,37.87
2019-02-27T03:55:44.314Z,38.47
2019-02-27T03:58:26.789Z,38.67
2019-02-27T04:01:30.000Z,38.43
2019-02-27T04:04:29.599Z,38.47
2019-02-27T04:07:49.496Z,39.83
2019-02-27T04:10:19.009Z,38.47
2019-02-27T04:12:51.304Z,37.10
2019-02-27T04:15:18.910Z,38.00
2019-02-27T04:17:51.857Z,38.67
2019-02-27T04:20:17.458Z,37.67
2019-02-27T04:22:46.746Z,39.90
2019-02-27T04:25:16.740Z,38.97
2019-02-27T04:27:46.027Z,38.20
2019-02-27T04:30:17.825Z,37.10
2019-02-27T04:32:48.643Z,36.70
2019-02-27T04:35:18.067Z,36.53
2019-02-27T04:37:48.310Z,36.63
2019-02-27T04:40:36.001Z,36.50
2019-02-27T04:43:04.993Z,35.67
2019-02-27T04:45:33.928Z,34.77
2019-02-27T04:48:05.957Z,34.33
2019-02-27T04:50:37.640Z,32.53
2019-02-27T04:53:06.442Z,32.80
2019-02-27T04:55:35.126Z,32.80
2019-02-27T04:58:08.588Z,33.40
2019-02-27T05:00:35.499Z,32.20
2019-02-27T05:03:05.017Z,33.57
2019-02-27T05:05:35.371Z,31.57
2019-02-27T05:08:04.906Z,32.47
2019-02-27T05:10:34.057Z,32.33
2019-02-27T05:13:02.978Z,34.03
2019-02-27T05:15:32.140Z,32.60
2019-02-27T05:18:02.623Z,33.37
2019-02-27T05:20:32.984Z,32.47
2019-02-27T05:23:02.027Z,32.37
2019-02-27T05:25:32.028Z,30.07
2019-02-27T05:28:01.454Z,31.90
2019-02-27T05:30:31.078Z,30.87
2019-02-27T05:33:02.115Z,29.47
2019-02-27T05:35:31.198Z,29.93
2019-02-27T05:38:06.239Z,29.93
2019-02-27T05:40:35.644Z,31.80
2019-02-27T05:43:04.803Z,28.43
2019-02-27T05:45:33.605Z,29.73
2019-02-27T05:48:02.900Z,29.37
2019-02-27T05:50:34.255Z,29.97
2019-02-27T05:53:03.493Z,30.13
2019-02-27T05:55:33.135Z,29.40
2019-02-27T05:58:01.937Z,28.87
2019-02-27T06:00:31.791Z,30.47
2019-02-27T06:03:00.862Z,31.80
2019-02-27T06:05:29.662Z,29.90
2019-02-27T06:08:02.017Z,31.90
2019-02-27T06:10:29.550Z,32.40
2019-02-27T06:12:58.840Z,33.07
2019-02-27T06:15:28.585Z,31.23
2019-02-27T06:17:58.719Z,31.23
2019-02-27T06:20:28.478Z,30.77
2019-02-27T06:23:07.209Z,30.53
2019-02-27T06:25:36.880Z,30.37
2019-02-27T06:28:07.481Z,29.80
2019-02-27T06:30:38.085Z,31.67
2019-02-27T06:33:11.652Z,31.50
2019-02-27T06:35:38.207Z,30.37
2019-02-27T06:38:11.702Z,29.83
2019-02-27T06:40:42.416Z,30.23
2019-02-27T06:43:17.581Z,29.70
2019-02-27T06:45:46.693Z,29.70
2019-02-27T06:48:15.658Z,28.57
2019-02-27T06:50:44.462Z,27.17
2019-02-27T06:53:15.797Z,26.63
2019-02-27T06:55:43.868Z,27.00
2019-02-27T06:58:14.789Z,28.73
2019-02-27T07:00:56.588Z,30.67
2019-02-27T07:03:33.946Z,30.50
2019-02-27T07:06:22.250Z,29.97
2019-02-27T07:09:02.123Z,27.20
2019-02-27T07:11:52.527Z,27.17
2019-02-27T07:14:32.679Z,26.07
2019-02-27T07:17:15.145Z,26.80
2019-02-27T07:19:50.944Z,27.93
2019-02-27T07:22:51.973Z,29.50
2019-02-27T07:25:32.998Z,29.03
2019-02-27T07:28:11.978Z,27.70
2019-02-27T07:30:53.637Z,26.83
2019-02-27T07:33:45.186Z,26.50
2019-02-27T07:36:27.712Z,25.97
2019-02-27T07:39:07.046Z,26.43
2019-02-27T07:41:45.258Z,27.43
2019-02-27T07:44:20.379Z,27.30
2019-02-27T07:46:58.025Z,28.27
2019-02-27T07:49:53.184Z,28.57
2019-02-27T07:52:32.456Z,27.67
2019-02-27T07:55:28.529Z,27.97
2019-02-27T07:58:11.347Z,28.67
2019-02-27T08:00:50.509Z,29.57
2019-02-27T08:03:24.991Z,27.30
2019-02-27T08:06:17.290Z,27.90
2019-02-27T08:08:56.932Z,26.77
2019-02-27T08:11:38.877Z,30.13
2019-02-27T08:14:20.379Z,30.17
2019-02-27T08:16:59.659Z,29.83
2019-02-27T08:19:37.418Z,28.83
2019-02-27T08:22:27.746Z,29.37
2019-02-27T08:25:03.863Z,29.03
2019-02-27T08:27:43.751Z,27.60
2019-02-27T08:30:22.902Z,28.40
2019-02-27T08:33:19.659Z,29.20
2019-02-27T08:36:01.911Z,28.80
2019-02-27T08:38:40.029Z,28.70
2019-02-27T08:41:29.172Z,29.40
2019-02-27T08:44:03.378Z,28.60
2019-02-27T08:46:46.120Z,27.77
2019-02-27T08:49:43.468Z,28.30
2019-02-27T08:52:25.450Z,28.50
2019-02-27T08:55:07.995Z,29.27
2019-02-27T08:57:45.518Z,29.33
2019-02-27T09:00:25.494Z,28.97
2019-02-27T09:03:05.361Z,28.90
2019-02-27T09:06:01.554Z,29.33
2019-02-27T09:08:43.573Z,28.67
2019-02-27T09:11:23.975Z,27.77
2019-02-27T09:14:01.771Z,29.13
2019-02-27T09:16:47.151Z,28.63
2019-02-27T09:19:24.077Z,28.13
2019-02-27T09:22:04.627Z,27.63
2019-02-27T09:24:40.616Z,27.27
2019-02-27T09:27:27.046Z,27.73
2019-02-27T09:29:56.965Z,27.77
2019-02-27T09:32:49.737Z,28.07
2019-02-27T09:35:34.480Z,29.20
2019-02-27T09:38:18.795Z,30.67
2019-02-27T09:40:55.077Z,29.97
2019-02-27T09:43:35.829Z,29.63
2019-02-27T09:46:19.285Z,31.07
2019-02-27T09:49:00.907Z,31.57
2019-02-27T09:51:38.264Z,30.43
2019-02-27T09:54:15.019Z,31.03
2019-02-27T09:56:55.640Z,30.07
2019-02-27T09:59:35.418Z,28.97
2019-02-27T10:02:12.515Z,30.13
2019-02-27T10:04:51.240Z,30.77
2019-02-27T10:07:32.620Z,30.10
2019-02-27T10:10:18.645Z,30.83
2019-02-27T10:12:59.938Z,29.90
2019-02-27T10:15:39.902Z,33.50
2019-02-27T10:18:18.088Z,30.33
2019-02-27T10:20:53.148Z,31.00
2019-02-27T10:23:31.169Z,31.43
2019-02-27T10:26:07.337Z,33.07
2019-02-27T10:28:44.697Z,32.27
2019-02-27T10:31:21.232Z,32.80
2019-02-27T10:34:00.440Z,31.90
2019-02-27T10:36:38.457Z,33.20
2019-02-27T10:39:15.626Z,31.87
2019-02-27T10:41:55.637Z,31.40
2019-02-27T10:44:33.970Z,32.10
2019-02-27T10:47:10.704Z,31.57
2019-02-27T10:49:52.038Z,30.63
2019-02-27T10:52:32.011Z,31.17
2019-02-27T10:55:22.271Z,31.30
2019-02-27T10:57:57.983Z,31.57
2019-02-27T11:00:50.816Z,30.23
2019-02-27T11:03:27.018Z,28.13
2019-02-27T11:06:33.949Z,29.20
2019-02-27T11:09:20.011Z,27.83
2019-02-27T11:12:00.614Z,29.47
2019-02-27T11:14:39.055Z,29.10
2019-02-27T11:17:21.665Z,29.43
2019-02-27T11:20:01.867Z,27.93
2019-02-27T11:22:55.184Z,25.70
2019-02-27T11:25:33.624Z,28.00
2019-02-27T11:28:15.161Z,28.23
2019-02-27T11:30:51.180Z,27.47
2019-02-27T11:33:32.505Z,27.03
2019-02-27T11:36:06.711Z,25.33
2019-02-27T11:38:43.475Z,27.03
2019-02-27T11:41:37.985Z,27.17
2019-02-27T11:44:28.642Z,25.43
2019-02-27T11:47:11.347Z,25.27
2019-02-27T11:49:52.157Z,26.83
2019-02-27T11:52:49.124Z,27.67
2019-02-27T11:55:24.435Z,26.50
2019-02-27T11:58:24.014Z,26.87
2019-02-27T12:00:59.442Z,25.33
2019-02-27T12:03:30.705Z,24.13
2019-02-27T12:06:05.345Z,24.50
2019-02-27T12:08:59.537Z,25.17
2019-02-27T12:11:32.194Z,23.50
2019-02-27T12:14:15.844Z,23.10
2019-02-27T12:16:54.747Z,22.53
2019-02-27T12:19:43.972Z,21.77
2019-02-27T12:22:20.639Z,23.30
2019-02-27T12:24:58.327Z,23.37
2019-02-27T12:27:48.731Z,22.53
2019-02-27T12:30:18.848Z,22.20
2019-02-27T12:32:56.645Z,22.13
2019-02-27T12:35:36.077Z,20.93
2019-02-27T12:38:11.869Z,21.47
2019-02-27T12:40:52.683Z,22.00
2019-02-27T12:43:27.086Z,23.20
2019-02-27T12:46:05.293Z,21.47
2019-02-27T12:48:53.590Z,20.23
2019-02-27T12:51:31.172Z,20.57
2019-02-27T12:54:16.346Z,19.73
2019-02-27T12:56:53.181Z,19.83
2019-02-27T12:59:37.984Z,18.67
2019-02-27T13:02:12.217Z,19.20
2019-02-27T13:04:53.254Z,17.47
2019-02-27T13:07:29.065Z,18.50
2019-02-27T13:10:09.870Z,22.93
2019-02-27T13:12:51.879Z,20.07
2019-02-27T13:15:27.916Z,21.23
2019-02-27T13:18:08.688Z,17.80
2019-02-27T13:20:50.761Z,18.80
2019-02-27T13:23:42.346Z,17.73
2019-02-27T13:26:16.584Z,17.03
2019-02-27T13:28:55.434Z,17.20
2019-02-27T13:31:36.641Z,17.93
2019-02-27T13:34:14.006Z,18.03
2019-02-27T13:36:54.982Z,16.57
2019-02-27T13:39:43.356Z,18.47
2019-02-27T13:42:23.501Z,18.53
2019-02-27T13:45:03.306Z,17.60
2019-02-27T13:47:45.183Z,16.30
2019-02-27T13:50:26.476Z,17.63
2019-02-27T13:52:59.897Z,17.17
2019-02-27T13:55:36.536Z,15.47
2019-02-27T13:58:14.491Z,15.43
2019-02-27T14:00:53.714Z,16.50
2019-02-27T14:03:32.370Z,17.30
2019-02-27T14:06:16.395Z,16.43
2019-02-27T14:09:00.221Z,16.70
2019-02-27T14:11:38.602Z,18.27
2019-02-27T14:14:17.597Z,17.83
2019-02-27T14:16:58.741Z,17.90
2019-02-27T14:19:37.222Z,17.90
2019-02-27T14:22:20.889Z,17.53
2019-02-27T14:24:59.497Z,16.57
2019-02-27T14:27:35.857Z,17.47
2019-02-27T14:30:17.778Z,16.43
2019-02-27T14:33:10.959Z,18.93
2019-02-27T14:35:47.992Z,17.83
2019-02-27T14:38:25.550Z,18.07
2019-02-27T14:41:19.183Z,18.03
2019-02-27T14:44:01.018Z,18.90
2019-02-27T14:46:52.296Z,18.07
2019-02-27T14:49:31.000Z,18.27
2019-02-27T14:52:25.892Z,17.20
2019-02-27T14:54:59.971Z,16.43
2019-02-27T14:57:50.094Z,18.27
2019-02-27T15:00:26.818Z,18.20
2019-02-27T15:03:16.869Z,18.87
2019-02-27T15:05:55.223Z,18.63
2019-02-27T15:08:31.568Z,18.07
2019-02-27T15:11:09.125Z,17.93
2019-02-27T15:13:46.882Z,17.93
2019-02-27T15:16:29.981Z,17.50
2019-02-27T15:19:06.868Z,19.43
2019-02-27T15:22:00.733Z,17.50
2019-02-27T15:24:35.821Z,18.20
2019-02-27T15:27:22.454Z,18.77
2019-02-27T15:30:02.274Z,18.83
2019-02-27T15:33:03.982Z,17.90
2019-02-27T15:35:38.582Z,17.03
2019-02-27T15:38:24.670Z,18.23
2019-02-27T15:41:03.145Z,18.50
2019-02-27T15:43:59.727Z,17.67
2019-02-27T15:46:35.198Z,18.03
2019-02-27T15:49:16.496Z,18.60
2019-02-27T15:51:55.849Z,18.20
2019-02-27T15:54:45.506Z,18.97
2019-02-27T15:57:24.665Z,19.97
2019-02-27T16:00:24.302Z,17.90
2019-02-27T16:03:11.245Z,18.20
2019-02-27T16:05:53.755Z,18.53
2019-02-27T16:08:32.540Z,18.10
2019-02-27T16:11:30.716Z,16.93
2019-02-27T16:14:09.478Z,17.27
2019-02-27T16:16:43.641Z,17.93
2019-02-27T16:19:22.034Z,18.93
2019-02-27T16:22:07.764Z,18.53
2019-02-27T16:24:49.280Z,18.53
2019-02-27T16:27:32.250Z,17.63
2019-02-27T16:30:09.408Z,17.37
2019-02-27T16:32:58.109Z,17.33
2019-02-27T16:35:33.580Z,16.77
2019-02-27T16:38:14.942Z,17.03
2019-02-27T16:40:53.615Z,17.50
2019-02-27T16:44:00.920Z,16.93
2019-02-27T16:46:43.493Z,18.20
2019-02-27T16:49:29.659Z,17.10
2019-02-27T16:52:13.299Z,16.13
2019-02-27T16:55:07.364Z,16.97
2019-02-27T16:57:44.071Z,16.00
2019-02-27T17:00:32.707Z,15.80
2019-02-27T17:03:13.262Z,16.60
2019-02-27T17:05:46.506Z,17.27
2019-02-27T17:08:23.644Z,17.33
2019-02-27T17:11:01.682Z,18.30
2019-02-27T17:13:31.682Z,17.50
2019-02-27T17:16:11.442Z,18.80
2019-02-27T17:18:51.275Z,18.77
2019-02-27T17:21:32.771Z,18.87
2019-02-27T17:24:11.842Z,19.00
2019-02-27T17:27:07.129Z,20.10
2019-02-27T17:29:46.378Z,18.37
2019-02-27T17:32:30.252Z,19.30
2019-02-27T17:35:06.731Z,28.73
2019-02-27T17:37:44.939Z,29.83
2019-02-27T17:40:29.571Z,26.70
2019-02-27T17:43:10.623Z,24.20
2019-02-27T17:45:55.661Z,22.60
2019-02-27T17:48:53.194Z,24.33
2019-02-27T17:51:26.166Z,24.43
2019-02-27T17:54:01.161Z,24.80
2019-02-27T17:56:49.974Z,30.37
2019-02-27T17:59:32.396Z,26.30
2019-02-27T18:02:07.811Z,23.87
2019-02-27T18:04:45.675Z,31.23
2019-02-27T18:07:34.394Z,29.37
2019-02-27T18:10:09.992Z,28.87
2019-02-27T18:12:52.639Z,27.63
2019-02-27T18:15:33.984Z,28.40
2019-02-27T18:21:09.541Z,28.30
2019-02-27T18:24:06.283Z,28.20
2019-02-27T18:26:41.537Z,26.90
2019-02-27T18:29:31.218Z,26.23
2019-02-27T18:32:09.077Z,25.13
2019-02-27T18:35:08.194Z,27.67
2019-02-27T18:37:42.253Z,27.20
2019-02-27T18:40:25.484Z,27.23
2019-02-27T18:43:04.541Z,25.70
2019-02-27T18:45:50.813Z,26.37
2019-02-27T18:48:23.489Z,27.30
2019-02-27T18:50:58.637Z,29.40
2019-02-27T18:53:35.174Z,28.00
2019-02-27T18:56:12.337Z,28.03
2019-02-27T18:58:55.601Z,27.00
2019-02-27T19:01:41.380Z,28.07
2019-02-27T19:04:19.672Z,31.37
2019-02-27T19:06:57.848Z,29.07
2019-02-27T19:09:38.492Z,29.23
2019-02-27T19:12:19.070Z,29.73
2019-02-27T19:15:14.030Z,28.03
2019-02-27T19:17:50.283Z,26.80
2019-02-27T19:20:29.045Z,28.47
2019-02-27T19:23:04.664Z,27.07
2019-02-27T19:25:47.153Z,26.87
2019-02-27T19:28:26.531Z,27.43
2019-02-27T19:31:09.938Z,27.63
2019-02-27T19:33:46.524Z,27.33
2019-02-27T19:36:55.807Z,27.67
2019-02-27T19:39:33.275Z,27.70
2019-02-27T19:42:16.230Z,28.00
2019-02-27T19:44:52.125Z,28.00
2019-02-27T19:47:30.991Z,28.07
2019-02-27T19:50:08.557Z,27.97
2019-02-27T19:53:07.190Z,28.20
2019-02-27T19:55:39.807Z,29.67
2019-02-27T19:58:30.166Z,31.53
2019-02-27T20:01:08.749Z,30.90
2019-02-27T20:03:36.274Z,30.13
2019-02-27T20:06:05.554Z,31.53
2019-02-27T20:08:34.476Z,34.07
2019-02-27T20:11:05.978Z,34.73
2019-02-27T20:13:35.439Z,37.83
2019-02-27T20:16:04.750Z,40.03
2019-02-27T20:18:33.894Z,44.13
2019-02-27T20:21:03.886Z,44.47
2019-02-27T20:23:33.048Z,42.80
2019-02-27T20:26:02.331Z,37.80
2019-02-27T20:28:32.686Z,36.10
2019-02-27T20:31:02.824Z,33.70
2019-02-27T20:33:34.246Z,31.93
2019-02-27T20:36:03.781Z,32.63
2019-02-27T20:38:33.660Z,32.20
2019-02-27T20:41:06.075Z,31.67
2019-02-27T20:43:40.508Z,32.13
2019-02-27T20:46:10.871Z,32.40
2019-02-27T20:48:39.936Z,32.47
2019-02-27T20:51:12.912Z,31.53
2019-02-27T20:53:42.195Z,31.93
2019-02-27T20:56:11.955Z,31.50
2019-02-27T20:58:40.877Z,31.60
2019-02-27T21:01:12.125Z,31.77
2019-02-27T21:03:41.724Z,30.13
2019-02-27T21:06:12.768Z,29.83
2019-02-27T21:08:42.219Z,28.80
2019-02-27T21:11:11.128Z,28.43
2019-02-27T21:13:40.174Z,28.03
2019-02-27T21:16:10.245Z,27.17
2019-02-27T21:18:39.726Z,25.97
2019-02-27T21:21:09.231Z,24.77
2019-02-27T21:23:38.379Z,24.93
2019-02-27T21:26:13.948Z,25.07
2019-02-27T21:28:45.105Z,24.53
2019-02-27T21:31:14.868Z,24.60
2019-02-27T21:33:45.727Z,25.43
2019-02-27T21:36:14.751Z,25.90
2019-02-27T21:38:47.551Z,27.43
2019-02-27T21:41:17.277Z,30.10
2019-02-27T21:43:52.922Z,36.63
2019-02-27T21:46:22.800Z,31.90
2019-02-27T21:48:51.724Z,28.63
2019-02-27T21:51:20.884Z,26.50
2019-02-27T21:53:49.926Z,25.27
2019-02-27T21:56:18.927Z,25.10
2019-02-27T21:58:48.029Z,25.33
2019-02-27T22:01:19.343Z,26.63
2019-02-27T22:03:47.660Z,25.43
2019-02-27T22:06:17.180Z,26.27
2019-02-27T22:08:46.218Z,23.60
2019-02-27T22:11:15.268Z,23.20
2019-02-27T22:13:45.401Z,22.17
2019-02-27T22:16:14.907Z,21.53
2019-02-27T22:18:46.812Z,20.87
2019-02-27T22:21:15.027Z,22.23
2019-02-27T22:23:44.876Z,23.07
2019-02-27T22:26:14.551Z,22.07
2019-02-27T22:28:43.596Z,23.33
2019-02-27T22:31:12.758Z,22.33
2019-02-27T22:33:41.799Z,23.07
2019-02-27T22:36:12.793Z,23.67
2019-02-27T22:38:42.654Z,23.77
2019-02-27T22:41:11.924Z,23.53
2019-02-27T22:43:41.451Z,24.07
2019-02-27T22:46:13.668Z,25.10
2019-02-27T22:48:42.893Z,24.13
2019-02-27T22:51:12.690Z,25.20
2019-02-27T22:53:43.616Z,25.30
2019-02-27T22:56:16.878Z,25.33
2019-02-27T22:58:45.658Z,24.13
2019-02-27T23:01:30.302Z,23.93
2019-02-27T23:04:02.105Z,24.70
2019-02-27T23:06:30.786Z,25.43
2019-02-27T23:08:59.595Z,25.07
2019-02-27T23:11:28.870Z,25.77
2019-02-27T23:13:57.675Z,26.30
2019-02-27T23:16:29.687Z,26.27
2019-02-27T23:19:03.676Z,25.80
2019-02-27T23:21:32.847Z,25.47
2019-02-27T23:24:07.209Z,26.00
2019-02-27T23:26:47.243Z,25.00
2019-02-27T23:29:16.890Z,26.07
2019-02-27T23:31:45.687Z,24.63
2019-02-27T23:34:15.210Z,26.70
2019-02-27T23:36:44.133Z,25.73
2019-02-27T23:39:12.934Z,24.80
2019-02-27T23:41:41.855Z,25.20
2019-02-27T23:44:12.127Z,26.30
2019-02-27T23:46:48.707Z,25.03
2019-02-27T23:49:12.347Z,25.50
2019-02-27T23:51:41.149Z,23.03
2019-02-27T23:54:10.428Z,25.87
2019-02-27T23:56:38.988Z,26.77
2019-02-27T23:59:07.910Z,26.27
